createdAt,value
2022-12-01T00:01:13.178Z,102644.75
2022-12-01T00:03:41.176Z,102641.66
2022-12-01T00:06:11.615Z,102631.53
2022-12-01T00:08:40.574Z,102641.34
2022-12-01T00:11:09.839Z,102645.88
2022-12-01T00:13:38.008Z,102635.56
2022-12-01T00:16:12.222Z,102647.22
2022-12-01T00:18:40.193Z,102639.44
2022-12-01T00:21:14.512Z,102623.72
2022-12-01T00:23:47.163Z,102640.41
2022-12-01T00:26:15.201Z,102637.25
2022-12-01T00:28:43.073Z,102634.22
2022-12-01T00:31:11.093Z,102638.53
2022-12-01T00:33:39.170Z,102643.34
2022-12-01T00:36:07.681Z,102637.63
2022-12-01T00:38:35.939Z,102603.16
2022-12-01T00:41:05.594Z,102631.16
2022-12-01T00:43:33.296Z,102622.09
2022-12-01T00:46:00.931Z,102623.47
2022-12-01T00:48:28.562Z,102628.44
2022-12-01T00:50:56.712Z,102637.97
2022-12-01T00:53:25.397Z,102636.50
2022-12-01T00:55:54.296Z,102631.25
2022-12-01T00:58:24.189Z,102627.97
2022-12-01T01:00:58.534Z,102635.06
2022-12-01T01:03:26.394Z,102649.03
2022-12-01T01:05:54.033Z,102646.19
2022-12-01T01:08:21.823Z,102645.94
2022-12-01T01:10:49.824Z,102644.22
2022-12-01T01:13:17.466Z,102657.50
2022-12-01T01:15:46.509Z,102656.16
2022-12-01T01:18:14.109Z,102658.97
2022-12-01T01:20:41.693Z,102675.69
2022-12-01T01:23:09.364Z,102660.22
2022-12-01T01:25:36.995Z,102670.56
2022-12-01T01:28:04.850Z,102667.47
2022-12-01T01:30:32.562Z,102660.69
2022-12-01T01:33:01.723Z,102664.47
2022-12-01T01:35:29.294Z,102669.16
2022-12-01T01:37:57.333Z,102673.03
2022-12-01T01:40:24.995Z,102661.44
2022-12-01T01:42:52.634Z,102661.69
2022-12-01T01:45:26.080Z,102665.63
2022-12-01T01:47:56.455Z,102674.94
2022-12-01T01:50:27.723Z,102667.88
2022-12-01T01:53:00.239Z,102662.94
2022-12-01T01:55:29.463Z,102673.16
2022-12-01T01:57:57.855Z,102669.53
2022-12-01T02:00:25.755Z,102674.34
2022-12-01T02:02:55.208Z,102674.19
2022-12-01T02:05:27.697Z,102666.69
2022-12-01T02:07:58.270Z,102666.56
2022-12-01T02:10:34.153Z,102673.41
2022-12-01T02:13:12.659Z,102668.66
2022-12-01T02:15:48.696Z,102661.91
2022-12-01T02:18:27.794Z,102668.41
2022-12-01T02:21:35.946Z,102677.03
2022-12-01T02:24:38.840Z,102673.34
2022-12-01T02:27:11.819Z,102676.41
2022-12-01T02:30:05.851Z,102666.84
2022-12-01T02:32:48.107Z,102668.97
2022-12-01T02:35:23.117Z,102675.66
2022-12-01T02:38:02.336Z,102666.69
2022-12-01T02:40:33.940Z,102663.97
2022-12-01T02:43:07.601Z,102661.06
2022-12-01T02:45:41.822Z,102678.41
2022-12-01T02:48:16.003Z,102656.00
2022-12-01T02:50:46.803Z,102654.69
2022-12-01T02:53:19.305Z,102671.00
2022-12-01T02:55:52.581Z,102674.47
2022-12-01T02:58:21.029Z,102665.41
2022-12-01T03:01:12.717Z,102664.69
2022-12-01T03:04:00.446Z,102668.63
2022-12-01T03:06:41.725Z,102662.31
2022-12-01T03:09:15.786Z,102657.38
2022-12-01T03:11:51.546Z,102661.38
2022-12-01T03:14:30.315Z,102662.88
2022-12-01T03:17:00.394Z,102679.03
2022-12-01T03:19:36.463Z,102665.59
2022-12-01T03:22:09.840Z,102669.16
2022-12-01T03:24:39.832Z,102668.25
2022-12-01T03:27:09.844Z,102670.97
2022-12-01T03:29:41.323Z,102662.22
2022-12-01T03:32:15.591Z,102668.91
2022-12-01T03:34:49.619Z,102664.97
2022-12-01T03:37:22.915Z,102668.47
2022-12-01T03:39:59.766Z,102666.09
2022-12-01T03:42:32.860Z,102659.97
2022-12-01T03:45:05.933Z,102663.59
2022-12-01T03:47:37.445Z,102667.81
2022-12-01T03:50:09.776Z,102673.31
2022-12-01T03:52:49.659Z,102665.06
2022-12-01T03:55:21.820Z,102666.69
2022-12-01T03:57:55.740Z,102673.03
2022-12-01T04:00:23.935Z,102672.72
2022-12-01T04:02:56.189Z,102664.19
2022-12-01T04:05:25.896Z,102666.94
2022-12-01T04:07:53.816Z,102668.81
2022-12-01T04:10:21.684Z,102661.59
2022-12-01T04:12:48.285Z,102670.34
2022-12-01T04:15:16.716Z,102673.16
2022-12-01T04:17:45.554Z,102665.44
2022-12-01T04:20:15.457Z,102673.31
2022-12-01T04:22:45.059Z,102672.06
2022-12-01T04:25:12.718Z,102679.31
2022-12-01T04:27:40.578Z,102671.19
2022-12-01T04:30:09.961Z,102676.19
2022-12-01T04:32:39.415Z,102676.56
2022-12-01T04:35:07.751Z,102668.72
2022-12-01T04:37:35.458Z,102672.69
2022-12-01T04:40:05.736Z,102670.34
2022-12-01T04:42:33.356Z,102669.06
2022-12-01T04:45:00.971Z,102675.56
2022-12-01T04:47:28.745Z,102676.63
2022-12-01T04:49:56.338Z,102681.47
2022-12-01T04:52:23.982Z,102669.88
2022-12-01T04:54:51.569Z,102670.16
2022-12-01T04:57:20.496Z,102685.63
2022-12-01T04:59:48.508Z,102684.22
2022-12-01T05:02:16.811Z,102637.19
2022-12-01T05:04:47.926Z,102680.84
2022-12-01T05:07:15.586Z,102676.00
2022-12-01T05:09:43.224Z,102686.19
2022-12-01T05:12:10.821Z,102690.09
2022-12-01T05:14:39.805Z,102688.25
2022-12-01T05:17:07.397Z,102645.94
2022-12-01T05:19:52.549Z,102692.59
2022-12-01T05:22:31.426Z,102693.72
2022-12-01T05:25:08.249Z,102697.91
2022-12-01T05:27:35.816Z,102701.88
2022-12-01T05:30:05.854Z,102694.03
2022-12-01T05:32:33.516Z,102681.75
2022-12-01T05:35:01.090Z,102692.63
2022-12-01T05:37:32.191Z,102698.63
2022-12-01T05:39:59.852Z,102690.59
2022-12-01T05:42:27.544Z,102701.31
2022-12-01T05:44:55.126Z,102704.91
2022-12-01T05:47:24.071Z,102703.28
2022-12-01T05:49:51.725Z,102702.84
2022-12-01T05:52:19.383Z,102690.56
2022-12-01T05:54:46.966Z,102691.44
2022-12-01T05:57:14.562Z,102692.88
2022-12-01T05:59:42.131Z,102697.06
2022-12-01T06:02:09.736Z,102706.84
2022-12-01T06:04:38.691Z,102702.78
2022-12-01T06:07:06.301Z,102707.97
2022-12-01T06:09:33.961Z,102699.22
2022-12-01T06:12:01.588Z,102702.38
2022-12-01T06:14:29.249Z,102712.28
2022-12-01T06:16:56.941Z,102712.56
2022-12-01T06:19:24.562Z,102706.84
2022-12-01T06:21:53.496Z,102720.66
2022-12-01T06:24:21.065Z,102711.22
2022-12-01T06:26:48.656Z,102719.22
2022-12-01T06:29:16.670Z,102713.66
2022-12-01T06:31:44.328Z,102723.22
2022-12-01T06:34:12.364Z,102722.91
2022-12-01T06:36:39.964Z,102714.44
2022-12-01T06:39:10.203Z,102728.25
2022-12-01T06:41:37.842Z,102716.25
2022-12-01T06:44:05.776Z,102732.34
2022-12-01T06:46:33.424Z,102734.00
2022-12-01T06:49:01.163Z,102730.72
2022-12-01T06:51:28.813Z,102736.75
2022-12-01T06:54:00.815Z,102739.94
2022-12-01T06:56:32.800Z,102736.25
2022-12-01T06:59:00.926Z,102732.34
2022-12-01T07:01:28.946Z,102739.13
2022-12-01T07:03:56.860Z,102747.91
2022-12-01T07:06:24.499Z,102742.13
2022-12-01T07:08:53.396Z,102740.31
2022-12-01T07:11:21.037Z,102710.06
2022-12-01T07:13:50.833Z,102748.75
2022-12-01T07:16:18.472Z,102745.47
2022-12-01T07:18:46.122Z,102739.16
2022-12-01T07:21:15.827Z,102741.16
2022-12-01T07:23:43.780Z,102744.50
2022-12-01T07:26:13.238Z,102738.81
2022-12-01T07:28:41.077Z,102753.16
2022-12-01T07:31:13.364Z,102750.94
2022-12-01T07:33:41.397Z,102757.75
2022-12-01T07:36:10.865Z,102755.44
2022-12-01T07:38:39.803Z,102756.72
2022-12-01T07:41:09.332Z,102759.00
2022-12-01T07:43:36.957Z,102754.72
2022-12-01T07:46:06.743Z,102755.28
2022-12-01T07:48:37.130Z,102740.69
2022-12-01T07:51:05.500Z,102754.88
2022-12-01T07:53:33.399Z,102759.56
2022-12-01T07:56:05.709Z,102769.09
2022-12-01T07:58:35.927Z,102769.38
2022-12-01T08:01:07.697Z,102768.69
2022-12-01T08:03:37.029Z,102769.63
2022-12-01T08:06:06.165Z,102771.78
2022-12-01T08:08:35.596Z,102775.44
2022-12-01T08:11:05.612Z,102766.16
2022-12-01T08:13:33.336Z,102773.00
2022-12-01T08:16:04.599Z,102780.75
2022-12-01T08:18:32.258Z,102777.53
2022-12-01T08:21:01.273Z,102770.09
2022-12-01T08:23:28.885Z,102775.47
2022-12-01T08:25:57.533Z,102784.59
2022-12-01T08:28:25.116Z,102781.00
2022-12-01T08:30:52.745Z,102791.28
2022-12-01T08:33:20.341Z,102789.69
2022-12-01T08:35:47.942Z,102780.38
2022-12-01T08:38:17.211Z,102783.94
2022-12-01T08:40:44.803Z,102783.38
2022-12-01T08:43:28.345Z,102777.75
2022-12-01T08:46:00.456Z,102780.91
2022-12-01T08:48:29.962Z,102785.91
2022-12-01T08:51:06.485Z,102786.25
2022-12-01T08:53:39.188Z,102780.53
2022-12-01T08:56:13.989Z,102784.03
2022-12-01T08:58:42.024Z,102780.22
2022-12-01T09:01:11.552Z,102793.22
2022-12-01T09:03:40.502Z,102794.34
2022-12-01T09:06:10.618Z,102797.38
2022-12-01T09:08:40.058Z,102793.81
2022-12-01T09:11:09.470Z,102801.13
2022-12-01T09:13:39.512Z,102797.16
2022-12-01T09:16:09.870Z,102791.53
2022-12-01T09:18:37.874Z,102804.06
2022-12-01T09:21:12.257Z,102788.91
2022-12-01T09:23:41.516Z,102812.47
2022-12-01T09:26:13.525Z,102795.59
2022-12-01T09:28:41.688Z,102808.56
2022-12-01T09:31:11.075Z,102805.66
2022-12-01T09:33:39.152Z,102790.91
2022-12-01T09:36:09.317Z,102796.56
2022-12-01T09:38:38.285Z,102801.16
2022-12-01T09:41:18.715Z,102796.19
2022-12-01T09:43:51.684Z,102803.44
2022-12-01T09:46:22.936Z,102800.31
2022-12-01T09:48:53.674Z,102787.59
2022-12-01T09:51:23.610Z,102791.38
2022-12-01T09:53:53.224Z,102792.50
2022-12-01T09:56:24.569Z,102773.34
2022-12-01T09:58:55.749Z,102810.28
2022-12-01T10:01:32.670Z,102801.44
2022-12-01T10:04:07.020Z,102810.63
2022-12-01T10:06:42.467Z,102796.69
2022-12-01T10:09:19.976Z,102806.25
2022-12-01T10:11:51.901Z,102791.69
2022-12-01T10:14:21.122Z,102790.47
2022-12-01T10:17:00.255Z,102783.81
2022-12-01T10:19:34.509Z,102786.31
2022-12-01T10:22:16.912Z,102783.75
2022-12-01T10:24:55.146Z,102770.63
2022-12-01T10:27:39.776Z,102780.41
2022-12-01T10:30:11.463Z,102769.38
2022-12-01T10:32:47.200Z,102776.44
2022-12-01T10:35:17.647Z,102767.72
2022-12-01T10:37:47.487Z,102769.28
2022-12-01T10:40:17.238Z,102773.13
2022-12-01T10:42:48.411Z,102756.75
2022-12-01T10:45:19.576Z,102769.91
2022-12-01T10:48:10.790Z,102765.78
2022-12-01T10:50:38.565Z,102774.84
2022-12-01T10:53:06.302Z,102765.59
2022-12-01T10:55:37.464Z,102768.38
2022-12-01T10:58:16.711Z,102778.44
2022-12-01T11:01:01.168Z,102775.47
2022-12-01T11:03:31.296Z,102772.28
2022-12-01T11:06:01.448Z,102773.94
2022-12-01T11:08:37.129Z,102768.13
2022-12-01T11:11:05.636Z,102768.94
2022-12-01T11:13:36.409Z,102768.66
2022-12-01T11:16:07.135Z,102763.19
2022-12-01T11:18:36.271Z,102766.00
2022-12-01T11:21:13.431Z,102781.50
2022-12-01T11:23:47.206Z,102785.25
2022-12-01T11:26:17.861Z,102778.06
2022-12-01T11:28:55.204Z,102780.75
2022-12-01T11:31:28.021Z,102767.22
2022-12-01T11:33:57.312Z,102769.19
2022-12-01T11:36:33.266Z,102774.41
2022-12-01T11:39:02.980Z,102751.53
2022-12-01T11:41:35.023Z,102775.72
2022-12-01T11:44:12.785Z,102781.25
2022-12-01T11:46:55.500Z,102786.03
2022-12-01T11:49:26.810Z,102784.69
2022-12-01T11:51:54.661Z,102797.47
2022-12-01T11:54:24.576Z,102787.72
2022-12-01T11:59:42.902Z,102797.59
2022-12-01T12:02:23.325Z,102784.34
2022-12-01T12:05:27.529Z,102780.47
2022-12-01T12:08:04.922Z,102784.19
2022-12-01T12:10:49.707Z,102783.34
2022-12-01T12:13:44.202Z,102778.97
2022-12-01T12:16:19.492Z,102780.16
2022-12-01T12:19:02.655Z,102766.75
2022-12-01T12:21:34.481Z,102760.03
2022-12-01T12:24:23.881Z,102771.38
2022-12-01T12:27:00.832Z,102752.31
2022-12-01T12:29:40.650Z,102778.50
2022-12-01T12:32:27.150Z,102772.97
2022-12-01T12:35:03.003Z,102775.00
2022-12-01T12:37:41.901Z,102770.63
2022-12-01T12:40:27.572Z,102769.91
2022-12-01T12:43:09.387Z,102770.91
2022-12-01T12:45:49.751Z,102774.63
2022-12-01T12:48:28.639Z,102772.50
2022-12-01T12:51:04.395Z,102754.16
2022-12-01T12:53:40.341Z,102771.19
2022-12-01T12:56:13.192Z,102763.44
2022-12-01T12:58:55.876Z,102771.50
2022-12-01T13:01:27.422Z,102765.59
2022-12-01T13:04:02.139Z,102769.28
2022-12-01T13:06:36.207Z,102765.16
2022-12-01T13:09:09.576Z,102767.72
2022-12-01T13:11:43.716Z,102766.56
2022-12-01T13:14:18.979Z,102751.19
2022-12-01T13:16:49.695Z,102758.44
2022-12-01T13:19:25.045Z,102765.31
2022-12-01T13:21:54.456Z,102764.41
2022-12-01T13:24:24.900Z,102765.88
2022-12-01T13:26:57.428Z,102763.91
2022-12-01T13:29:26.847Z,102766.81
2022-12-01T13:31:55.917Z,102773.78
2022-12-01T13:34:27.688Z,102776.38
2022-12-01T13:36:57.123Z,102783.50
2022-12-01T13:39:27.857Z,102788.75
2022-12-01T13:42:01.587Z,102779.34
2022-12-01T13:44:33.467Z,102772.47
2022-12-01T13:47:04.778Z,102770.09
2022-12-01T13:49:41.961Z,102773.34
2022-12-01T13:52:30.200Z,102770.25
2022-12-01T13:55:03.350Z,102763.69
2022-12-01T13:57:33.232Z,102777.16
2022-12-01T14:00:21.286Z,102763.31
2022-12-01T14:03:26.659Z,102768.81
2022-12-01T14:06:06.579Z,102766.00
2022-12-01T14:08:37.613Z,102775.97
2022-12-01T14:11:09.140Z,102747.25
2022-12-01T14:13:47.655Z,102765.69
2022-12-01T14:16:16.353Z,102781.69
2022-12-01T14:18:50.241Z,102769.38
2022-12-01T14:21:43.458Z,102759.38
2022-12-01T14:24:23.064Z,102765.16
2022-12-01T14:26:52.513Z,102756.66
2022-12-01T14:29:29.428Z,102762.72
2022-12-01T14:32:21.684Z,102763.75
2022-12-01T14:35:11.639Z,102759.00
2022-12-01T14:37:47.223Z,102762.19
2022-12-01T14:40:24.462Z,102754.41
2022-12-01T14:43:14.272Z,102730.88
2022-12-01T14:45:48.585Z,102746.06
2022-12-01T14:48:19.657Z,102759.38
2022-12-01T14:50:50.299Z,102754.13
2022-12-01T14:53:26.755Z,102743.38
2022-12-01T14:55:57.408Z,102736.31
2022-12-01T14:58:29.701Z,102762.16
2022-12-01T15:01:05.721Z,102754.66
2022-12-01T15:03:38.049Z,102739.25
2022-12-01T15:06:06.353Z,102758.44
2022-12-01T15:08:45.750Z,102755.25
2022-12-01T15:11:22.956Z,102748.13
2022-12-01T15:13:53.670Z,102752.13
2022-12-01T15:16:24.143Z,102751.69
2022-12-01T15:18:52.587Z,102742.06
2022-12-01T15:21:23.472Z,102749.94
2022-12-01T15:24:01.131Z,102737.69
2022-12-01T15:26:31.685Z,102747.44
2022-12-01T15:29:23.211Z,102745.34
2022-12-01T15:31:53.372Z,102754.03
2022-12-01T15:34:24.710Z,102735.97
2022-12-01T15:36:53.883Z,102734.00
2022-12-01T15:39:30.215Z,102743.22
2022-12-01T15:41:58.509Z,102748.47
2022-12-01T15:44:29.809Z,102751.97
2022-12-01T15:46:57.561Z,102752.78
2022-12-01T15:49:29.466Z,102746.00
2022-12-01T15:52:09.949Z,102751.06
2022-12-01T15:54:39.758Z,102756.56
2022-12-01T15:57:07.895Z,102728.06
2022-12-01T15:59:39.542Z,102762.44
2022-12-01T16:02:17.071Z,102758.50
2022-12-01T16:04:44.984Z,102752.06
2022-12-01T16:07:14.124Z,102758.38
2022-12-01T16:09:45.028Z,102754.94
2022-12-01T16:12:26.488Z,102754.72
2022-12-01T16:14:57.563Z,102752.00
2022-12-01T16:17:26.331Z,102761.00
2022-12-01T16:20:17.310Z,102757.16
2022-12-01T16:22:46.311Z,102761.84
2022-12-01T16:25:23.158Z,102762.28
2022-12-01T16:27:58.188Z,102771.69
2022-12-01T16:30:30.086Z,102764.03
2022-12-01T16:33:15.084Z,102766.25
2022-12-01T16:35:42.865Z,102762.28
2022-12-01T16:38:16.249Z,102775.28
2022-12-01T16:40:45.536Z,102777.41
2022-12-01T16:43:16.566Z,102769.53
2022-12-01T16:45:44.837Z,102769.03
2022-12-01T16:48:12.972Z,102761.53
2022-12-01T16:50:41.306Z,102769.84
2022-12-01T16:53:10.408Z,102775.59
2022-12-01T16:55:42.570Z,102782.72
2022-12-01T16:58:11.947Z,102771.03
2022-12-01T17:00:39.770Z,102774.50
2022-12-01T17:03:09.004Z,102769.94
2022-12-01T17:05:36.811Z,102779.91
2022-12-01T17:08:04.928Z,102776.50
2022-12-01T17:10:32.704Z,102774.91
2022-12-01T17:13:00.491Z,102790.72
2022-12-01T17:15:29.649Z,102791.88
2022-12-01T17:17:57.426Z,102773.34
2022-12-01T17:20:25.612Z,102784.56
2022-12-01T17:22:53.375Z,102773.41
2022-12-01T17:25:21.079Z,102776.44
2022-12-01T17:27:48.822Z,102782.19
2022-12-01T17:30:16.761Z,102763.19
2022-12-01T17:32:46.486Z,102785.28
2022-12-01T17:35:14.444Z,102773.47
2022-12-01T17:37:42.691Z,102775.72
2022-12-01T17:40:14.763Z,102784.88
2022-12-01T17:42:46.959Z,102791.03
2022-12-01T17:45:16.432Z,102785.72
2022-12-01T17:47:45.631Z,102797.00
2022-12-01T17:50:13.325Z,102798.84
2022-12-01T17:52:41.143Z,102789.03
2022-12-01T17:55:10.218Z,102796.06
2022-12-01T17:57:38.240Z,102792.06
2022-12-01T18:00:07.324Z,102790.22
2022-12-01T18:02:35.103Z,102790.78
2022-12-01T18:05:04.694Z,102789.13
2022-12-01T18:07:32.685Z,102806.59
2022-12-01T18:10:00.561Z,102804.16
2022-12-01T18:12:28.333Z,102796.78
2022-12-01T18:14:56.096Z,102786.06
2022-12-01T18:17:23.839Z,102803.44
2022-12-01T18:19:51.521Z,102797.53
2022-12-01T18:22:20.637Z,102797.44
2022-12-01T18:24:48.776Z,102811.13
2022-12-01T18:27:16.770Z,102789.78
2022-12-01T18:29:44.522Z,102789.16
2022-12-01T18:32:12.227Z,102803.84
2022-12-01T18:34:39.980Z,102805.13
2022-12-01T18:37:07.776Z,102802.38
2022-12-01T18:39:36.892Z,102794.56
2022-12-01T18:42:04.889Z,102794.34
2022-12-01T18:44:32.842Z,102801.19
2022-12-01T18:47:02.780Z,102797.41
2022-12-01T18:49:30.712Z,102804.34
2022-12-01T18:51:59.807Z,102795.13
2022-12-01T18:54:27.648Z,102801.38
2022-12-01T18:56:58.879Z,102805.88
2022-12-01T18:59:26.909Z,102796.84
2022-12-01T19:01:54.986Z,102799.09
2022-12-01T19:04:22.749Z,102813.56
2022-12-01T19:06:50.518Z,102810.00
2022-12-01T19:09:18.571Z,102789.56
2022-12-01T19:11:46.394Z,102802.34
2022-12-01T19:14:17.501Z,102786.63
2022-12-01T19:16:45.639Z,102790.78
2022-12-01T19:19:13.593Z,102803.78
2022-12-01T19:21:41.531Z,102803.63
2022-12-01T19:24:09.538Z,102812.97
2022-12-01T19:26:37.422Z,102797.09
2022-12-01T19:29:05.492Z,102779.53
2022-12-01T19:31:34.951Z,102795.03
2022-12-01T19:34:03.673Z,102801.94
2022-12-01T19:36:31.408Z,102803.16
2022-12-01T19:39:00.580Z,102793.81
2022-12-01T19:41:30.356Z,102795.13
2022-12-01T19:43:59.488Z,102793.84
2022-12-01T19:46:28.974Z,102789.06
2022-12-01T19:49:00.348Z,102790.34
2022-12-01T19:51:30.636Z,102789.50
2022-12-01T19:53:59.113Z,102799.38
2022-12-01T19:56:27.327Z,102796.81
2022-12-01T19:58:55.200Z,102785.22
2022-12-01T20:01:23.007Z,102777.84
2022-12-01T20:03:52.756Z,102787.69
2022-12-01T20:06:24.071Z,102781.03
2022-12-01T20:08:52.433Z,102777.16
2022-12-01T20:11:20.712Z,102767.91
2022-12-01T20:13:49.048Z,102775.91
2022-12-01T20:16:19.033Z,102777.75
2022-12-01T20:18:47.149Z,102784.06
2022-12-01T20:21:17.550Z,102784.66
2022-12-01T20:23:49.202Z,102792.34
2022-12-01T20:26:18.870Z,102792.97
2022-12-01T20:28:47.991Z,102778.53
2022-12-01T20:31:19.366Z,102786.78
2022-12-01T20:33:47.945Z,102781.50
2022-12-01T20:36:16.028Z,102782.22
2022-12-01T20:38:43.941Z,102767.41
2022-12-01T20:41:13.901Z,102779.84
2022-12-01T20:43:41.799Z,102777.59
2022-12-01T20:46:09.659Z,102765.97
2022-12-01T20:48:37.385Z,102777.66
2022-12-01T20:51:06.919Z,102763.19
2022-12-01T20:53:35.060Z,102776.84
2022-12-01T20:56:03.850Z,102779.97
2022-12-01T20:58:37.204Z,102783.03
2022-12-01T21:01:09.304Z,102769.72
2022-12-01T21:03:39.426Z,102767.75
2022-12-01T21:06:07.719Z,102774.16
2022-12-01T21:08:38.509Z,102772.38
2022-12-01T21:11:08.544Z,102767.56
2022-12-01T21:13:39.334Z,102766.25
2022-12-01T21:16:14.201Z,102774.47
2022-12-01T21:18:54.840Z,102778.16
2022-12-01T21:21:25.611Z,102751.44
2022-12-01T21:24:10.822Z,102772.72
2022-12-01T21:26:40.875Z,102765.59
2022-12-01T21:29:18.800Z,102777.53
2022-12-01T21:31:46.906Z,102770.84
2022-12-01T21:34:19.334Z,102763.91
2022-12-01T21:36:48.797Z,102770.66
2022-12-01T21:39:18.667Z,102760.06
2022-12-01T21:41:46.531Z,102770.63
2022-12-01T21:44:18.018Z,102769.81
2022-12-01T21:46:46.250Z,102755.50
2022-12-01T21:49:16.297Z,102759.69
2022-12-01T21:51:44.705Z,102763.94
2022-12-01T21:54:16.674Z,102760.16
2022-12-01T21:56:44.614Z,102762.97
2022-12-01T21:59:20.058Z,102745.94
2022-12-01T22:01:48.613Z,102751.91
2022-12-01T22:04:20.298Z,102747.19
2022-12-01T22:06:49.786Z,102752.31
2022-12-01T22:09:26.391Z,102742.88
2022-12-01T22:11:55.680Z,102743.53
2022-12-01T22:14:28.645Z,102754.25
2022-12-01T22:16:58.031Z,102750.41
2022-12-01T22:19:29.872Z,102749.13
2022-12-01T22:22:03.166Z,102731.81
2022-12-01T22:24:38.975Z,102738.50
2022-12-01T22:27:26.812Z,102755.25
2022-12-01T22:29:59.456Z,102745.31
2022-12-01T22:32:38.907Z,102740.56
2022-12-01T22:35:23.145Z,102745.25
2022-12-01T22:37:52.904Z,102742.88
2022-12-01T22:40:41.192Z,102730.94
2022-12-01T22:43:23.992Z,102747.47
2022-12-01T22:46:17.660Z,102751.03
2022-12-01T22:48:47.322Z,102739.56
2022-12-01T22:51:27.655Z,102673.75
2022-12-01T22:54:01.048Z,102751.44
2022-12-01T22:56:32.721Z,102745.50
2022-12-01T22:59:00.434Z,102749.63
2022-12-01T23:01:31.356Z,102735.69
2022-12-01T23:04:14.313Z,102743.81
2022-12-01T23:06:52.037Z,102718.34
2022-12-01T23:09:20.305Z,102740.25
2022-12-01T23:11:52.000Z,102752.94
2022-12-01T23:14:23.131Z,102759.13
2022-12-01T23:16:54.314Z,102748.53
2022-12-01T23:19:21.933Z,102737.78
2022-12-01T23:21:49.517Z,102752.16
2022-12-01T23:24:19.292Z,102739.41
2022-12-01T23:26:47.513Z,102729.06
2022-12-01T23:29:15.142Z,102734.81
2022-12-01T23:31:42.916Z,102738.56
2022-12-01T23:34:16.211Z,102739.94
2022-12-01T23:36:44.171Z,102723.78
2022-12-01T23:39:13.879Z,102734.59
2022-12-01T23:41:43.865Z,102746.56
2022-12-01T23:44:18.412Z,102743.63
2022-12-01T23:46:47.038Z,102744.88
2022-12-01T23:49:19.995Z,102712.09
2022-12-01T23:51:50.747Z,102729.59
2022-12-01T23:54:22.072Z,102723.22
2022-12-01T23:56:59.047Z,102736.22
2022-12-01T23:59:27.184Z,102721.72
